createdAt,value
2018-04-29T00:01:13.570Z,100508
2018-04-29T00:03:41.738Z,100508
2018-04-29T00:06:09.869Z,100506
2018-04-29T00:08:38.793Z,100490
2018-04-29T00:11:06.971Z,100489
2018-04-29T00:13:35.161Z,100482
2018-04-29T00:16:03.321Z,100472
2018-04-29T00:18:31.444Z,100464
2018-04-29T00:21:00.348Z,100455
2018-04-29T00:23:28.464Z,100458
2018-04-29T00:25:56.594Z,100451
2018-04-29T00:28:24.799Z,100446
2018-04-29T00:30:52.962Z,100464
2018-04-29T00:33:21.096Z,100475
2018-04-29T00:35:49.251Z,100482
2018-04-29T00:38:17.446Z,100499
2018-04-29T00:40:46.378Z,100493
2018-04-29T00:43:14.525Z,100500
2018-04-29T00:45:42.665Z,100504
2018-04-29T00:48:10.821Z,100504
2018-04-29T00:50:38.979Z,100510
2018-04-29T00:53:07.132Z,100512
2018-04-29T00:55:35.268Z,100515
2018-04-29T00:58:04.207Z,100519
2018-04-29T01:00:32.477Z,100528
2018-04-29T01:03:00.638Z,100533
2018-04-29T01:05:28.821Z,100528
2018-04-29T01:07:56.965Z,100539
2018-04-29T01:10:25.680Z,100545
2018-04-29T01:12:53.846Z,100542
2018-04-29T01:15:22.017Z,100542
2018-04-29T01:17:50.137Z,100543
2018-04-29T01:20:18.501Z,100545
2018-04-29T01:22:46.675Z,100542
2018-04-29T01:25:14.835Z,100538
2018-04-29T01:27:42.976Z,100539
2018-04-29T01:30:11.097Z,100544
2018-04-29T01:32:39.304Z,100541
2018-04-29T01:35:07.468Z,100535
2018-04-29T01:37:35.618Z,100535
2018-04-29T01:40:03.829Z,100539
2018-04-29T01:42:31.984Z,100541
2018-04-29T01:45:00.904Z,100541
2018-04-29T01:47:29.021Z,100544
2018-04-29T01:49:57.174Z,100527
2018-04-29T01:52:25.350Z,100529
2018-04-29T01:54:53.489Z,100535
2018-04-29T01:57:21.643Z,100537
2018-04-29T01:59:49.805Z,100538
2018-04-29T02:02:18.713Z,100528
2018-04-29T02:04:46.829Z,100528
2018-04-29T02:07:14.973Z,100533
2018-04-29T02:09:43.130Z,100527
2018-04-29T02:12:11.261Z,100526
2018-04-29T02:14:39.420Z,100524
2018-04-29T02:17:07.545Z,100516
2018-04-29T02:19:35.924Z,100509
2018-04-29T02:22:04.064Z,100513
2018-04-29T02:24:32.190Z,100512
2018-04-29T02:27:00.345Z,100510
2018-04-29T02:29:28.491Z,100516
2018-04-29T02:31:57.409Z,100517
2018-04-29T02:34:25.567Z,100525
2018-04-29T02:36:53.733Z,100506
2018-04-29T02:39:22.686Z,100524
2018-04-29T02:41:50.846Z,100529
2018-04-29T02:44:19.001Z,100529
2018-04-29T02:46:47.146Z,100529
2018-04-29T02:49:15.268Z,100524
2018-04-29T02:51:43.424Z,100518
2018-04-29T02:54:11.710Z,100524
2018-04-29T02:56:39.866Z,100521
2018-04-29T02:59:07.995Z,100515
2018-04-29T03:01:36.915Z,100517
2018-04-29T03:04:05.282Z,100516
2018-04-29T03:06:33.460Z,100510
2018-04-29T03:09:01.588Z,100520
2018-04-29T03:11:29.701Z,100527
2018-04-29T03:13:57.841Z,100519
2018-04-29T03:16:25.965Z,100531
2018-04-29T03:18:54.120Z,100502
2018-04-29T03:21:22.247Z,100507
2018-04-29T03:23:50.402Z,100510
2018-04-29T03:26:18.590Z,100521
2018-04-29T03:28:46.833Z,100508
2018-04-29T03:31:14.985Z,100510
2018-04-29T03:33:43.121Z,100506
2018-04-29T03:36:11.332Z,100509
2018-04-29T03:38:39.489Z,100507
2018-04-29T03:41:08.416Z,100516
2018-04-29T03:43:36.605Z,100513
2018-04-29T03:46:04.742Z,100514
2018-04-29T03:48:32.876Z,100524
2018-04-29T03:51:01.017Z,100520
2018-04-29T03:53:29.140Z,100510
2018-04-29T03:55:58.250Z,100510
2018-04-29T03:58:44.271Z,100523
2018-04-29T04:01:30.392Z,100524
2018-04-29T04:03:59.429Z,100530
2018-04-29T04:06:27.622Z,100533
2018-04-29T04:08:55.773Z,100536
2018-04-29T04:11:23.928Z,100529
2018-04-29T04:13:52.816Z,100542
2018-04-29T04:16:21.728Z,100537
2018-04-29T04:18:49.862Z,100537
2018-04-29T04:21:18.831Z,100547
2018-04-29T04:23:47.087Z,100548
2018-04-29T04:26:15.957Z,100543
2018-04-29T04:28:44.090Z,100554
2018-04-29T04:31:13.029Z,100556
2018-04-29T04:33:41.183Z,100548
2018-04-29T04:36:09.378Z,100548
2018-04-29T04:38:37.552Z,100553
2018-04-29T04:41:05.693Z,100559
2018-04-29T04:43:34.605Z,100555
2018-04-29T04:46:02.732Z,100560
2018-04-29T04:48:30.904Z,100562
2018-04-29T04:50:59.095Z,100569
2018-04-29T04:53:27.996Z,100560
2018-04-29T04:55:56.889Z,100563
2018-04-29T04:58:25.078Z,100559
2018-04-29T05:00:53.284Z,100558
2018-04-29T05:03:21.447Z,100567
2018-04-29T05:05:49.618Z,100572
2018-04-29T05:08:17.772Z,100576
2018-04-29T05:10:45.936Z,100581
2018-04-29T05:13:14.110Z,100582
2018-04-29T05:15:42.842Z,100592
2018-04-29T05:18:10.996Z,100581
2018-04-29T05:20:39.155Z,100582
2018-04-29T05:23:07.309Z,100581
2018-04-29T05:25:35.501Z,100574
2018-04-29T05:28:03.658Z,100576
2018-04-29T05:30:31.813Z,100574
2018-04-29T05:33:00.762Z,100580
2018-04-29T05:35:29.026Z,100579
2018-04-29T05:37:57.092Z,100576
2018-04-29T05:40:25.269Z,100569
2018-04-29T05:42:53.422Z,100561
2018-04-29T05:45:21.546Z,100562
2018-04-29T05:47:49.789Z,100563
2018-04-29T05:50:17.943Z,100563
2018-04-29T05:52:46.068Z,100565
2018-04-29T05:55:14.204Z,100559
2018-04-29T05:57:42.354Z,100555
2018-04-29T06:00:10.520Z,100563
2018-04-29T06:02:38.687Z,100561
2018-04-29T06:05:06.865Z,100558
2018-04-29T06:07:35.016Z,100564
2018-04-29T06:10:03.938Z,100573
2018-04-29T06:12:32.958Z,100572
2018-04-29T06:15:01.093Z,100576
2018-04-29T06:17:29.242Z,100565
2018-04-29T06:19:58.190Z,100570
2018-04-29T06:22:26.366Z,100567
2018-04-29T06:24:54.520Z,100564
2018-04-29T06:27:22.671Z,100563
2018-04-29T06:29:50.797Z,100557
2018-04-29T06:32:18.917Z,100558
2018-04-29T06:34:47.081Z,100551
2018-04-29T06:37:25.402Z,100551
2018-04-29T06:39:53.521Z,100554
2018-04-29T06:42:21.658Z,100559
2018-04-29T06:44:49.866Z,100554
2018-04-29T06:47:18.822Z,100574
2018-04-29T06:49:47.165Z,100565
2018-04-29T06:52:15.371Z,100574
2018-04-29T06:54:43.576Z,100572
2018-04-29T06:57:11.740Z,100572
2018-04-29T06:59:39.904Z,100567
2018-04-29T07:02:08.072Z,100582
2018-04-29T07:04:36.294Z,100589
2018-04-29T07:07:04.524Z,100589
2018-04-29T07:09:32.706Z,100597
2018-04-29T07:12:01.397Z,100597
2018-04-29T07:14:29.553Z,100599
2018-04-29T07:16:57.766Z,100596
2018-04-29T07:19:25.932Z,100597
2018-04-29T07:21:54.075Z,100586
2018-04-29T07:24:22.271Z,100576
2018-04-29T07:26:50.501Z,100574
2018-04-29T07:29:18.666Z,100570
2018-04-29T07:31:47.083Z,100576
2018-04-29T07:34:15.223Z,100590
2018-04-29T07:36:43.405Z,100591
2018-04-29T07:39:11.547Z,100579
2018-04-29T07:41:40.442Z,100589
2018-04-29T07:44:09.941Z,100600
2018-04-29T07:46:38.852Z,100608
2018-04-29T07:49:07.016Z,100597
2018-04-29T07:51:35.240Z,100581
2018-04-29T07:54:03.411Z,100590
2018-04-29T07:56:31.586Z,100586
2018-04-29T07:58:59.740Z,100563
2018-04-29T08:01:27.873Z,100552
2018-04-29T08:03:56.878Z,100534
2018-04-29T08:06:25.074Z,100524
2018-04-29T08:08:53.360Z,100546
2018-04-29T08:11:21.713Z,100560
2018-04-29T08:13:50.054Z,100572
2018-04-29T08:16:19.521Z,100580
2018-04-29T08:18:47.704Z,100587
2018-04-29T08:21:15.875Z,100576
2018-04-29T08:23:44.068Z,100562
2018-04-29T08:26:12.279Z,100579
2018-04-29T08:28:40.558Z,100586
2018-04-29T08:31:08.752Z,100583
2018-04-29T08:33:36.936Z,100551
2018-04-29T08:36:05.133Z,100542
2018-04-29T08:38:33.414Z,100545
2018-04-29T08:41:01.787Z,100527
2018-04-29T08:43:29.914Z,100510
2018-04-29T08:45:58.042Z,100506
2018-04-29T08:48:26.342Z,100507
2018-04-29T08:50:54.506Z,100500
2018-04-29T08:53:23.441Z,100514
2018-04-29T08:55:51.605Z,100523
2018-04-29T08:58:19.786Z,100532
2018-04-29T09:00:47.916Z,100529
2018-04-29T09:03:16.937Z,100525
2018-04-29T09:05:45.065Z,100522
2018-04-29T09:08:14.426Z,100534
2018-04-29T09:10:42.618Z,100527
2018-04-29T09:13:10.753Z,100523
2018-04-29T09:15:40.401Z,100530
2018-04-29T09:18:09.125Z,100534
2018-04-29T09:20:38.050Z,100529
2018-04-29T09:23:06.345Z,100531
2018-04-29T09:25:34.501Z,100534
2018-04-29T09:28:02.645Z,100528
2018-04-29T09:30:30.827Z,100524
2018-04-29T09:32:58.993Z,100515
2018-04-29T09:35:27.252Z,100515
2018-04-29T09:37:56.151Z,100517
2018-04-29T09:40:24.342Z,100515
2018-04-29T09:42:52.547Z,100520
2018-04-29T09:45:20.972Z,100513
2018-04-29T09:47:49.151Z,100518
2018-04-29T09:50:17.317Z,100516
2018-04-29T09:52:45.686Z,100510
2018-04-29T09:55:14.620Z,100509
2018-04-29T09:57:42.765Z,100510
2018-04-29T10:00:10.885Z,100511
2018-04-29T10:02:44.610Z,100515
2018-04-29T10:05:13.530Z,100510
2018-04-29T10:07:41.673Z,100513
2018-04-29T10:10:09.844Z,100505
2018-04-29T10:12:38.015Z,100513
2018-04-29T10:15:06.178Z,100504
2018-04-29T10:17:34.352Z,100503
2018-04-29T10:20:02.543Z,100502
2018-04-29T10:22:31.438Z,100506
2018-04-29T10:25:00.343Z,100494
2018-04-29T10:27:28.501Z,100485
2018-04-29T10:29:57.522Z,100496
2018-04-29T10:32:25.704Z,100492
2018-04-29T10:34:53.841Z,100488
2018-04-29T10:37:22.751Z,100503
2018-04-29T10:39:50.882Z,100495
2018-04-29T10:42:19.033Z,100494
2018-04-29T10:44:47.167Z,100495
2018-04-29T10:47:15.340Z,100490
2018-04-29T10:49:43.553Z,100485
2018-04-29T10:52:11.711Z,100490
2018-04-29T10:54:39.906Z,100481
2018-04-29T10:57:08.084Z,100475
2018-04-29T10:59:36.233Z,100481
2018-04-29T11:02:04.421Z,100475
2018-04-29T11:04:32.618Z,100464
2018-04-29T11:07:00.775Z,100467
2018-04-29T11:09:28.927Z,100469
2018-04-29T11:11:57.225Z,100470
2018-04-29T11:14:25.434Z,100472
2018-04-29T11:16:53.600Z,100463
2018-04-29T11:19:22.485Z,100473
2018-04-29T11:21:51.435Z,100467
2018-04-29T11:24:19.615Z,100476
2018-04-29T11:26:47.752Z,100469
2018-04-29T11:29:15.953Z,100469
2018-04-29T11:31:44.117Z,100464
2018-04-29T11:34:12.301Z,100460
2018-04-29T11:36:40.600Z,100459
2018-04-29T11:39:08.766Z,100466
2018-04-29T11:41:36.924Z,100460
2018-04-29T11:44:05.061Z,100451
2018-04-29T11:46:33.204Z,100453
2018-04-29T11:49:02.183Z,100450
2018-04-29T11:51:30.354Z,100451
2018-04-29T11:53:58.581Z,100446
2018-04-29T11:56:26.761Z,100447
2018-04-29T11:58:54.934Z,100455
2018-04-29T12:01:23.140Z,100440
2018-04-29T12:03:51.330Z,100445
2018-04-29T12:06:20.522Z,100445
2018-04-29T12:08:48.760Z,100446
2018-04-29T12:11:16.940Z,100446
2018-04-29T12:13:45.103Z,100448
2018-04-29T12:16:13.278Z,100445
2018-04-29T12:18:41.456Z,100434
2018-04-29T12:21:09.668Z,100439
2018-04-29T12:23:38.596Z,100433
2018-04-29T12:26:06.741Z,100428
2018-04-29T12:28:35.778Z,100423
2018-04-29T12:31:03.963Z,100427
2018-04-29T12:33:32.195Z,100430
2018-04-29T12:36:00.367Z,100432
2018-04-29T12:38:28.560Z,100422
2018-04-29T12:40:57.494Z,100431
2018-04-29T12:43:25.646Z,100435
2018-04-29T12:45:53.826Z,100415
2018-04-29T12:48:22.002Z,100419
2018-04-29T12:50:50.170Z,100416
2018-04-29T12:53:18.386Z,100407
2018-04-29T12:55:47.306Z,100405
2018-04-29T12:58:15.431Z,100395
2018-04-29T13:00:44.345Z,100396
2018-04-29T13:03:13.245Z,100387
2018-04-29T13:05:41.497Z,100389
2018-04-29T13:08:09.613Z,100389
2018-04-29T13:10:37.747Z,100385
2018-04-29T13:13:06.641Z,100380
2018-04-29T13:15:34.783Z,100378
2018-04-29T13:18:02.945Z,100378
2018-04-29T13:20:31.121Z,100364
2018-04-29T13:22:59.281Z,100364
2018-04-29T13:25:27.445Z,100361
2018-04-29T13:27:55.640Z,100365
2018-04-29T13:30:24.696Z,100363
2018-04-29T13:32:53.101Z,100359
2018-04-29T13:35:21.304Z,100348
2018-04-29T13:37:50.423Z,100352
2018-04-29T13:40:18.540Z,100345
2018-04-29T13:42:47.641Z,100349
2018-04-29T13:45:15.807Z,100340
2018-04-29T13:47:43.961Z,100343
2018-04-29T13:50:12.102Z,100347
2018-04-29T13:52:40.272Z,100344
2018-04-29T13:55:08.444Z,100335
2018-04-29T13:57:37.323Z,100332
2018-04-29T14:00:06.258Z,100340
2018-04-29T14:02:34.399Z,100335
2018-04-29T14:05:02.577Z,100325
2018-04-29T14:07:30.769Z,100323
2018-04-29T14:09:58.903Z,100320
2018-04-29T14:12:27.802Z,100314
2018-04-29T14:14:56.743Z,100315
2018-04-29T14:17:24.906Z,100312
2018-04-29T14:19:53.118Z,100308
2018-04-29T14:22:21.315Z,100300
2018-04-29T14:24:50.256Z,100297
2018-04-29T14:27:18.414Z,100302
2018-04-29T14:29:46.559Z,100299
2018-04-29T14:32:15.378Z,100300
2018-04-29T14:34:43.707Z,100293
2018-04-29T14:37:11.881Z,100295
2018-04-29T14:39:40.818Z,100293
2018-04-29T14:42:09.017Z,100296
2018-04-29T14:44:37.200Z,100297
2018-04-29T14:47:06.638Z,100288
2018-04-29T14:49:34.889Z,100289
2018-04-29T14:52:03.063Z,100291
2018-04-29T14:54:31.979Z,100284
2018-04-29T14:57:00.135Z,100283
2018-04-29T14:59:29.037Z,100285
2018-04-29T15:01:57.202Z,100279
2018-04-29T15:04:25.358Z,100284
2018-04-29T15:06:53.505Z,100279
2018-04-29T15:09:21.637Z,100281
2018-04-29T15:11:49.843Z,100272
2018-04-29T15:14:17.997Z,100274
2018-04-29T15:16:46.141Z,100277
2018-04-29T15:19:14.292Z,100278
2018-04-29T15:21:43.341Z,100273
2018-04-29T15:24:11.535Z,100277
2018-04-29T15:26:39.644Z,100270
2018-04-29T15:29:08.550Z,100266
2018-04-29T15:31:36.705Z,100268
2018-04-29T15:34:06.039Z,100262
2018-04-29T15:36:34.149Z,100259
2018-04-29T15:39:02.283Z,100263
2018-04-29T15:41:30.445Z,100249
2018-04-29T15:43:59.050Z,100249
2018-04-29T15:46:27.195Z,100241
2018-04-29T15:48:55.358Z,100242
2018-04-29T15:51:23.566Z,100241
2018-04-29T15:53:51.718Z,100236
2018-04-29T15:56:19.864Z,100229
2018-04-29T15:58:48.756Z,100228
2018-04-29T16:01:17.637Z,100230
2018-04-29T16:03:46.558Z,100231
2018-04-29T16:06:14.669Z,100222
2018-04-29T16:08:42.793Z,100227
2018-04-29T16:11:11.207Z,100220
2018-04-29T16:13:39.370Z,100213
2018-04-29T16:16:07.992Z,100209
2018-04-29T16:18:36.237Z,100198
2018-04-29T16:21:04.385Z,100198
2018-04-29T16:23:32.508Z,100192
2018-04-29T16:26:00.734Z,100188
2018-04-29T16:28:28.890Z,100182
2018-04-29T16:30:57.058Z,100184
2018-04-29T16:33:25.994Z,100189
2018-04-29T16:35:54.129Z,100177
2018-04-29T16:38:22.330Z,100174
2018-04-29T16:40:50.469Z,100183
2018-04-29T16:43:19.349Z,100174
2018-04-29T16:45:48.244Z,100163
2018-04-29T16:48:17.214Z,100162
2018-04-29T16:50:45.574Z,100152
2018-04-29T16:53:13.821Z,100156
2018-04-29T16:55:42.112Z,100147
2018-04-29T16:58:10.245Z,100150
2018-04-29T17:00:38.454Z,100149
2018-04-29T17:03:06.636Z,100142
2018-04-29T17:05:34.785Z,100143
2018-04-29T17:08:02.933Z,100142
2018-04-29T17:10:31.090Z,100147
2018-04-29T17:13:00.026Z,100135
2018-04-29T17:15:28.139Z,100134
2018-04-29T17:17:57.251Z,100139
2018-04-29T17:20:26.201Z,100133
2018-04-29T17:22:54.349Z,100131
2018-04-29T17:25:22.468Z,100127
2018-04-29T17:27:50.637Z,100125
2018-04-29T17:30:18.785Z,100133
2018-04-29T17:32:46.943Z,100132
2018-04-29T17:35:15.118Z,100144
2018-04-29T17:37:43.236Z,100139
2018-04-29T17:40:11.474Z,100132
2018-04-29T17:42:39.622Z,100138
2018-04-29T17:45:07.766Z,100127
2018-04-29T17:47:36.676Z,100128
2018-04-29T17:50:04.826Z,100124
2018-04-29T17:52:33.847Z,100134
2018-04-29T17:55:01.969Z,100119
2018-04-29T17:57:30.169Z,100115
2018-04-29T17:59:59.072Z,100122
2018-04-29T18:02:27.375Z,100119
2018-04-29T18:04:55.510Z,100115
2018-04-29T18:07:24.440Z,100112
2018-04-29T18:09:52.577Z,100110
2018-04-29T18:12:21.626Z,100112
2018-04-29T18:14:49.810Z,100109
2018-04-29T18:17:18.092Z,100111
2018-04-29T18:19:46.255Z,100111
2018-04-29T18:22:14.425Z,100114
2018-04-29T18:24:42.549Z,100100
2018-04-29T18:27:10.698Z,100112
2018-04-29T18:29:39.748Z,100106
2018-04-29T18:32:07.892Z,100110
2018-04-29T18:34:36.029Z,100102
2018-04-29T18:37:04.265Z,100101
2018-04-29T18:39:32.577Z,100104
2018-04-29T18:42:01.579Z,100102
2018-04-29T18:44:30.510Z,100098
2018-04-29T18:46:58.636Z,100102
2018-04-29T18:49:27.540Z,100101
2018-04-29T18:51:56.854Z,100104
2018-04-29T18:54:24.996Z,100105
2018-04-29T18:56:53.909Z,100110
2018-04-29T18:59:22.029Z,100107
2018-04-29T19:01:50.158Z,100106
2018-04-29T19:04:18.314Z,100107
2018-04-29T19:06:47.200Z,100115
2018-04-29T19:09:16.117Z,100111
2018-04-29T19:11:44.393Z,100114
2018-04-29T19:14:12.596Z,100113
2018-04-29T19:16:40.720Z,100108
2018-04-29T19:19:09.674Z,100103
2018-04-29T19:21:37.956Z,100106
2018-04-29T19:24:06.190Z,100112
2018-04-29T19:26:35.313Z,100104
2018-04-29T19:29:03.480Z,100110
2018-04-29T19:31:31.685Z,100109
2018-04-29T19:33:59.805Z,100102
2018-04-29T19:36:27.986Z,100100
2018-04-29T19:38:56.138Z,100101
2018-04-29T19:41:24.265Z,100094
2018-04-29T19:43:52.528Z,100098
2018-04-29T19:46:21.380Z,100089
2018-04-29T19:48:49.530Z,100086
2018-04-29T19:51:17.728Z,100085
2018-04-29T19:53:45.878Z,100079
2018-04-29T19:56:14.008Z,100087
2018-04-29T19:58:42.186Z,100077
2018-04-29T20:01:10.408Z,100069
2018-04-29T20:03:38.647Z,100070
2018-04-29T20:06:06.697Z,100067
2018-04-29T20:08:34.832Z,100058
2018-04-29T20:11:02.981Z,100057
2018-04-29T20:13:32.073Z,100054
2018-04-29T20:16:00.958Z,100047
2018-04-29T20:18:29.954Z,100050
2018-04-29T20:20:58.088Z,100048
2018-04-29T20:23:26.355Z,100035
2018-04-29T20:25:54.497Z,100037
2018-04-29T20:28:22.657Z,100036
2018-04-29T20:30:50.792Z,100028
2018-04-29T20:33:18.927Z,100031
2018-04-29T20:35:47.113Z,100020
2018-04-29T20:38:15.241Z,100022
2018-04-29T20:40:44.377Z,100028
2018-04-29T20:43:12.511Z,100022
2018-04-29T20:45:41.446Z,100022
2018-04-29T20:48:09.642Z,100024
2018-04-29T20:50:37.871Z,100017
2018-04-29T20:53:06.044Z,100010
2018-04-29T20:55:34.323Z,100010
2018-04-29T20:58:02.522Z,100004
2018-04-29T21:00:30.772Z,100001
2018-04-29T21:02:58.924Z,100002
2018-04-29T21:05:27.040Z,99994
2018-04-29T21:07:55.177Z,99990
2018-04-29T21:10:23.344Z,99985
2018-04-29T21:12:51.486Z,99986
2018-04-29T21:15:20.413Z,99985
2018-04-29T21:17:48.570Z,99990
2018-04-29T21:20:16.774Z,99977
2018-04-29T21:22:44.935Z,99979
2018-04-29T21:25:13.085Z,99972
2018-04-29T21:27:42.009Z,99971
2018-04-29T21:30:10.153Z,99966
2018-04-29T21:32:38.297Z,99970
2018-04-29T21:35:06.440Z,99967
2018-04-29T21:37:35.117Z,99962
2018-04-29T21:40:03.241Z,99957
2018-04-29T21:42:32.128Z,99948
2018-04-29T21:45:01.064Z,99956
2018-04-29T21:47:29.171Z,99943
2018-04-29T21:49:57.322Z,99944
2018-04-29T21:52:26.065Z,99944
2018-04-29T21:54:54.181Z,99938
2018-04-29T21:57:22.353Z,99943
2018-04-29T21:59:50.484Z,99931
2018-04-29T22:02:18.642Z,99931
2018-04-29T22:04:46.779Z,99929
2018-04-29T22:07:14.922Z,99930
2018-04-29T22:09:43.106Z,99928
2018-04-29T22:12:11.258Z,99931
2018-04-29T22:14:39.389Z,99917
2018-04-29T22:17:07.564Z,99919
2018-04-29T22:19:35.688Z,99920
2018-04-29T22:22:03.841Z,99923
2018-04-29T22:24:31.976Z,99908
2018-04-29T22:27:00.123Z,99905
2018-04-29T22:29:28.282Z,99900
2018-04-29T22:31:56.436Z,99886
2018-04-29T22:34:24.632Z,99897
2018-04-29T22:36:52.802Z,99892
2018-04-29T22:39:20.978Z,99889
2018-04-29T22:41:49.924Z,99887
2018-04-29T22:44:18.866Z,99871
2018-04-29T22:46:47.049Z,99874
2018-04-29T22:49:15.211Z,99863
2018-04-29T22:51:43.336Z,99854
2018-04-29T22:54:11.452Z,99859
2018-04-29T22:56:39.581Z,99855
2018-04-29T22:59:07.725Z,99852
2018-04-29T23:01:35.898Z,99852
2018-04-29T23:04:04.191Z,99838
2018-04-29T23:06:32.280Z,99829
2018-04-29T23:09:00.395Z,99829
2018-04-29T23:11:28.981Z,99822
2018-04-29T23:13:57.126Z,99803
2018-04-29T23:16:25.258Z,99802
2018-04-29T23:18:54.316Z,99805
2018-04-29T23:21:22.794Z,99802
2018-04-29T23:23:50.941Z,99791
2018-04-29T23:26:19.064Z,99790
2018-04-29T23:28:47.174Z,99783
2018-04-29T23:31:15.338Z,99780
2018-04-29T23:33:43.460Z,99777
2018-04-29T23:36:11.609Z,99767
2018-04-29T23:38:39.752Z,99755
2018-04-29T23:41:07.920Z,99754
2018-04-29T23:43:36.125Z,99742
2018-04-29T23:46:04.261Z,99735
2018-04-29T23:48:33.141Z,99730
2018-04-29T23:51:02.051Z,99720
2018-04-29T23:53:30.197Z,99716
2018-04-29T23:55:58.311Z,99711
2018-04-29T23:58:26.471Z,99700
